sensor_id;sensor_type;location;lat;lon;timestamp;pressure;altitude;pressure_sealevel;temperature;humidity
42887;BME280;29032;56.028;92.904;2023-02-12T00:02:33;102100.66;;;-19.47;40.66
42887;BME280;29032;56.028;92.904;2023-02-12T00:07:35;102096.75;;;-19.74;41.29
42887;BME280;29032;56.028;92.904;2023-02-12T00:12:39;102088.91;;;-19.89;41.40
42887;BME280;29032;56.028;92.904;2023-02-12T00:17:41;102076.50;;;-20.23;42.11
42887;BME280;29032;56.028;92.904;2023-02-12T00:22:43;102083.13;;;-20.20;41.59
42887;BME280;29032;56.028;92.904;2023-02-12T00:27:47;102099.94;;;-20.25;41.30
42887;BME280;29032;56.028;92.904;2023-02-12T00:32:49;102102.69;;;-20.35;42.02
42887;BME280;29032;56.028;92.904;2023-02-12T00:37:51;102100.91;;;-20.45;43.07
42887;BME280;29032;56.028;92.904;2023-02-12T00:42:55;102105.66;;;-20.65;42.91
42887;BME280;29032;56.028;92.904;2023-02-12T00:47:58;102105.03;;;-20.86;43.42
42887;BME280;29032;56.028;92.904;2023-02-12T00:53:01;102118.03;;;-20.85;44.19
42887;BME280;29032;56.028;92.904;2023-02-12T00:58:05;102120.03;;;-20.66;42.64
42887;BME280;29032;56.028;92.904;2023-02-12T01:03:07;102115.78;;;-20.67;43.27
42887;BME280;29032;56.028;92.904;2023-02-12T01:08:11;102126.91;;;-20.60;42.99
42887;BME280;29032;56.028;92.904;2023-02-12T01:13:15;102104.28;;;-20.58;42.33
42887;BME280;29032;56.028;92.904;2023-02-12T01:18:18;102130.09;;;-20.29;42.44
42887;BME280;29032;56.028;92.904;2023-02-12T01:23:20;102128.59;;;-20.17;41.90
42887;BME280;29032;56.028;92.904;2023-02-12T01:28:23;102126.84;;;-20.26;42.01
42887;BME280;29032;56.028;92.904;2023-02-12T01:33:25;102138.16;;;-20.10;41.80
42887;BME280;29032;56.028;92.904;2023-02-12T01:38:28;102138.28;;;-19.97;40.49
42887;BME280;29032;56.028;92.904;2023-02-12T01:43:32;102138.72;;;-19.90;40.67
42887;BME280;29032;56.028;92.904;2023-02-12T01:48:37;102136.13;;;-19.71;41.68
42887;BME280;29032;56.028;92.904;2023-02-12T01:53:46;102144.78;;;-19.36;40.59
42887;BME280;29032;56.028;92.904;2023-02-12T01:58:52;102132.75;;;-19.15;39.59
42887;BME280;29032;56.028;92.904;2023-02-12T02:03:57;102146.47;;;-19.03;40.13
42887;BME280;29032;56.028;92.904;2023-02-12T02:09:01;102155.75;;;-19.00;39.88
42887;BME280;29032;56.028;92.904;2023-02-12T02:14:05;102154.97;;;-19.00;39.36
42887;BME280;29032;56.028;92.904;2023-02-12T02:19:19;102136.72;;;-18.93;38.91
42887;BME280;29032;56.028;92.904;2023-02-12T02:24:46;102141.56;;;-18.95;39.22
42887;BME280;29032;56.028;92.904;2023-02-12T02:30:21;102139.47;;;-18.80;39.98
42887;BME280;29032;56.028;92.904;2023-02-12T02:35:35;102142.25;;;-18.90;39.22
42887;BME280;29032;56.028;92.904;2023-02-12T02:40:43;102150.25;;;-18.90;39.47
42887;BME280;29032;56.028;92.904;2023-02-12T02:45:51;102142.72;;;-19.02;39.46
42887;BME280;29032;56.028;92.904;2023-02-12T02:51:02;102142.78;;;-18.88;40.04
42887;BME280;29032;56.028;92.904;2023-02-12T02:56:07;102132.59;;;-18.67;40.11
42887;BME280;29032;56.028;92.904;2023-02-12T03:01:31;102144.53;;;-18.45;39.60
42887;BME280;29032;56.028;92.904;2023-02-12T03:06:39;102136.28;;;-18.30;40.50
42887;BME280;29032;56.028;92.904;2023-02-12T03:11:42;102132.75;;;-18.12;39.80
42887;BME280;29032;56.028;92.904;2023-02-12T03:16:50;102124.47;;;-17.97;40.43
42887;BME280;29032;56.028;92.904;2023-02-12T03:21:57;102123.16;;;-17.85;39.90
42887;BME280;29032;56.028;92.904;2023-02-12T03:27:05;102139.97;;;-17.71;39.75
42887;BME280;29032;56.028;92.904;2023-02-12T03:32:22;102138.50;;;-17.64;40.04
42887;BME280;29032;56.028;92.904;2023-02-12T03:37:29;102144.34;;;-17.48;39.82
42887;BME280;29032;56.028;92.904;2023-02-12T03:42:36;102146.19;;;-17.35;39.47
42887;BME280;29032;56.028;92.904;2023-02-12T03:47:45;102153.03;;;-17.28;39.54
42887;BME280;29032;56.028;92.904;2023-02-12T03:52:49;102154.53;;;-17.22;40.11
42887;BME280;29032;56.028;92.904;2023-02-12T03:57:54;102144.31;;;-17.20;39.99
42887;BME280;29032;56.028;92.904;2023-02-12T04:03:00;102146.78;;;-17.10;39.48
42887;BME280;29032;56.028;92.904;2023-02-12T04:08:04;102151.41;;;-17.02;40.69
42887;BME280;29032;56.028;92.904;2023-02-12T04:13:14;102156.72;;;-16.88;40.23
42887;BME280;29032;56.028;92.904;2023-02-12T04:18:24;102151.44;;;-16.80;40.47
42887;BME280;29032;56.028;92.904;2023-02-12T04:23:43;102155.84;;;-16.84;40.54
42887;BME280;29032;56.028;92.904;2023-02-12T04:28:57;102158.63;;;-16.89;40.93
42887;BME280;29032;56.028;92.904;2023-02-12T04:34:09;102155.66;;;-17.01;40.95
42887;BME280;29032;56.028;92.904;2023-02-12T04:39:18;102145.88;;;-17.05;40.98
42887;BME280;29032;56.028;92.904;2023-02-12T04:44:24;102140.50;;;-16.92;41.20
42887;BME280;29032;56.028;92.904;2023-02-12T04:49:28;102132.78;;;-16.71;40.99
42887;BME280;29032;56.028;92.904;2023-02-12T04:54:30;102138.69;;;-16.60;41.70
42887;BME280;29032;56.028;92.904;2023-02-12T04:59:32;102132.69;;;-16.57;41.35
42887;BME280;29032;56.028;92.904;2023-02-12T05:04:36;102127.47;;;-16.40;41.08
42887;BME280;29032;56.028;92.904;2023-02-12T05:09:38;102131.44;;;-16.06;40.99
42887;BME280;29032;56.028;92.904;2023-02-12T05:14:40;102130.59;;;-15.76;40.98
42887;BME280;29032;56.028;92.904;2023-02-12T05:19:44;102124.84;;;-15.52;40.30
42887;BME280;29032;56.028;92.904;2023-02-12T05:24:48;102111.72;;;-15.53;40.64
42887;BME280;29032;56.028;92.904;2023-02-12T05:29:50;102088.03;;;-15.69;41.41
42887;BME280;29032;56.028;92.904;2023-02-12T05:34:54;102105.00;;;-15.33;41.25
42887;BME280;29032;56.028;92.904;2023-02-12T05:39:56;102090.19;;;-15.14;40.75
42887;BME280;29032;56.028;92.904;2023-02-12T05:44:58;102078.16;;;-14.90;41.05
42887;BME280;29032;56.028;92.904;2023-02-12T05:50:02;102078.91;;;-14.55;40.18
42887;BME280;29032;56.028;92.904;2023-02-12T05:55:05;102086.97;;;-14.55;39.81
42887;BME280;29032;56.028;92.904;2023-02-12T06:00:08;102088.13;;;-14.18;40.88
42887;BME280;29032;56.028;92.904;2023-02-12T06:05:15;102084.94;;;-13.73;40.41
42887;BME280;29032;56.028;92.904;2023-02-12T06:10:17;102072.19;;;-13.34;39.61
42887;BME280;29032;56.028;92.904;2023-02-12T06:15:20;102072.78;;;-13.08;39.16
42887;BME280;29032;56.028;92.904;2023-02-12T06:20:24;102060.03;;;-12.99;39.57
42887;BME280;29032;56.028;92.904;2023-02-12T06:25:27;102059.78;;;-13.06;40.04
42887;BME280;29032;56.028;92.904;2023-02-12T06:30:29;102059.31;;;-13.08;40.23
42887;BME280;29032;56.028;92.904;2023-02-12T06:35:33;102061.09;;;-13.12;39.88
42887;BME280;29032;56.028;92.904;2023-02-12T06:40:36;102058.06;;;-13.31;40.63
42887;BME280;29032;56.028;92.904;2023-02-12T06:45:38;102051.66;;;-13.18;41.07
42887;BME280;29032;56.028;92.904;2023-02-12T06:50:41;102055.94;;;-12.84;40.91
42887;BME280;29032;56.028;92.904;2023-02-12T06:55:43;102055.72;;;-12.46;40.48
42887;BME280;29032;56.028;92.904;2023-02-12T07:00:46;102051.50;;;-12.10;40.53
42887;BME280;29032;56.028;92.904;2023-02-12T07:05:50;102036.84;;;-11.60;39.17
42887;BME280;29032;56.028;92.904;2023-02-12T07:10:52;102036.28;;;-11.13;39.11
42887;BME280;29032;56.028;92.904;2023-02-12T07:15:54;102020.56;;;-10.95;38.59
42887;BME280;29032;56.028;92.904;2023-02-12T07:20:58;102023.56;;;-10.85;38.26
42887;BME280;29032;56.028;92.904;2023-02-12T07:26:02;102017.22;;;-10.77;38.52
42887;BME280;29032;56.028;92.904;2023-02-12T07:31:12;102010.41;;;-10.71;37.94
42887;BME280;29032;56.028;92.904;2023-02-12T07:36:18;102007.38;;;-10.53;38.01
42887;BME280;29032;56.028;92.904;2023-02-12T07:41:21;102008.84;;;-9.93;37.43
42887;BME280;29032;56.028;92.904;2023-02-12T07:46:25;101998.63;;;-9.29;36.82
42887;BME280;29032;56.028;92.904;2023-02-12T07:51:30;101978.28;;;-9.00;36.36
42887;BME280;29032;56.028;92.904;2023-02-12T07:56:33;101974.94;;;-9.13;36.32
42887;BME280;29032;56.028;92.904;2023-02-12T08:01:37;101976.34;;;-9.19;35.59
42887;BME280;29032;56.028;92.904;2023-02-12T08:06:42;101985.06;;;-9.10;35.85
42887;BME280;29032;56.028;92.904;2023-02-12T08:11:45;101982.19;;;-8.97;35.28
42887;BME280;29032;56.028;92.904;2023-02-12T08:16:49;101971.72;;;-9.18;35.70
42887;BME280;29032;56.028;92.904;2023-02-12T08:21:54;101973.94;;;-9.24;36.31
42887;BME280;29032;56.028;92.904;2023-02-12T08:26:57;101973.78;;;-8.92;35.07
42887;BME280;29032;56.028;92.904;2023-02-12T08:32:00;101958.94;;;-8.98;35.17
42887;BME280;29032;56.028;92.904;2023-02-12T08:37:05;101954.38;;;-8.94;35.60
42887;BME280;29032;56.028;92.904;2023-02-12T08:42:08;101963.50;;;-9.80;35.97
42887;BME280;29032;56.028;92.904;2023-02-12T08:47:11;101955.72;;;-10.48;36.77
42887;BME280;29032;56.028;92.904;2023-02-12T08:52:14;101957.78;;;-10.89;37.54
42887;BME280;29032;56.028;92.904;2023-02-12T08:57:16;101957.50;;;-11.00;37.84
42887;BME280;29032;56.028;92.904;2023-02-12T09:02:18;101951.41;;;-10.97;37.89
42887;BME280;29032;56.028;92.904;2023-02-12T09:07:22;101962.16;;;-10.84;37.90
42887;BME280;29032;56.028;92.904;2023-02-12T09:12:24;101951.50;;;-10.93;37.49
42887;BME280;29032;56.028;92.904;2023-02-12T09:17:26;101948.16;;;-11.02;37.91
42887;BME280;29032;56.028;92.904;2023-02-12T09:22:30;101935.28;;;-10.93;37.50
42887;BME280;29032;56.028;92.904;2023-02-12T09:27:32;101943.13;;;-10.88;37.44
42887;BME280;29032;56.028;92.904;2023-02-12T09:32:34;101948.72;;;-10.81;37.39
42887;BME280;29032;56.028;92.904;2023-02-12T09:37:38;101953.75;;;-10.79;37.06
42887;BME280;29032;56.028;92.904;2023-02-12T09:42:58;101948.09;;;-10.90;36.86
42887;BME280;29032;56.028;92.904;2023-02-12T09:48:13;101957.44;;;-11.15;37.34
42887;BME280;29032;56.028;92.904;2023-02-12T09:53:22;101942.91;;;-11.39;37.13
42887;BME280;29032;56.028;92.904;2023-02-12T09:58:31;101945.63;;;-11.39;37.50
42887;BME280;29032;56.028;92.904;2023-02-12T10:03:34;101941.78;;;-11.38;37.17
42887;BME280;29032;56.028;92.904;2023-02-12T10:08:49;101951.41;;;-11.25;37.58
42887;BME280;29032;56.028;92.904;2023-02-12T10:14:07;101946.44;;;-11.22;37.46
42887;BME280;29032;56.028;92.904;2023-02-12T10:19:25;101937.91;;;-11.25;37.76
42887;BME280;29032;56.028;92.904;2023-02-12T10:24:44;101939.22;;;-11.46;37.61
42887;BME280;29032;56.028;92.904;2023-02-12T10:29:49;101938.72;;;-11.64;37.97
42887;BME280;29032;56.028;92.904;2023-02-12T10:34:53;101941.19;;;-11.59;37.85
42887;BME280;29032;56.028;92.904;2023-02-12T10:40:03;101933.09;;;-11.59;37.41
42887;BME280;29032;56.028;92.904;2023-02-12T10:45:12;101938.72;;;-11.64;37.69
42887;BME280;29032;56.028;92.904;2023-02-12T10:50:21;101929.13;;;-11.90;38.00
42887;BME280;29032;56.028;92.904;2023-02-12T10:55:30;101927.19;;;-11.89;37.75
42887;BME280;29032;56.028;92.904;2023-02-12T11:00:34;101926.50;;;-11.86;37.31
42887;BME280;29032;56.028;92.904;2023-02-12T11:05:38;101928.91;;;-11.85;37.66
42887;BME280;29032;56.028;92.904;2023-02-12T11:10:42;101934.50;;;-11.90;37.59
42887;BME280;29032;56.028;92.904;2023-02-12T11:15:47;101945.56;;;-12.07;37.79
42887;BME280;29032;56.028;92.904;2023-02-12T11:20:51;101946.25;;;-12.34;37.98
42887;BME280;29032;56.028;92.904;2023-02-12T11:25:58;101950.75;;;-12.51;38.79
42887;BME280;29032;56.028;92.904;2023-02-12T11:31:02;101955.25;;;-12.55;38.69
42887;BME280;29032;56.028;92.904;2023-02-12T11:36:11;101955.44;;;-12.72;38.21
42887;BME280;29032;56.028;92.904;2023-02-12T11:41:23;101955.22;;;-12.79;38.55
42887;BME280;29032;56.028;92.904;2023-02-12T11:46:27;101959.44;;;-13.03;38.71
42887;BME280;29032;56.028;92.904;2023-02-12T11:51:31;101947.44;;;-13.26;39.03
42887;BME280;29032;56.028;92.904;2023-02-12T11:56:42;101944.19;;;-13.32;39.18
42887;BME280;29032;56.028;92.904;2023-02-12T12:01:45;101937.25;;;-13.54;39.44
42887;BME280;29032;56.028;92.904;2023-02-12T12:06:52;101941.69;;;-13.58;39.43
42887;BME280;29032;56.028;92.904;2023-02-12T12:12:03;101946.16;;;-13.62;39.41
42887;BME280;29032;56.028;92.904;2023-02-12T12:17:13;101936.13;;;-13.53;39.17
42887;BME280;29032;56.028;92.904;2023-02-12T12:22:27;101943.00;;;-13.64;39.20
42887;BME280;29032;56.028;92.904;2023-02-12T12:27:39;101958.63;;;-13.78;39.45
42887;BME280;29032;56.028;92.904;2023-02-12T12:32:43;101955.75;;;-13.73;39.53
42887;BME280;29032;56.028;92.904;2023-02-12T12:37:52;101956.38;;;-13.76;39.46
42887;BME280;29032;56.028;92.904;2023-02-12T12:43:10;101957.06;;;-13.79;39.42
42887;BME280;29032;56.028;92.904;2023-02-12T12:48:23;101955.84;;;-13.90;39.85
42887;BME280;29032;56.028;92.904;2023-02-12T12:53:35;101947.06;;;-13.99;39.72
42887;BME280;29032;56.028;92.904;2023-02-12T12:58:54;101949.28;;;-14.02;39.98
42887;BME280;29032;56.028;92.904;2023-02-12T13:04:24;101950.88;;;-14.00;39.58
42887;BME280;29032;56.028;92.904;2023-02-12T13:09:52;101954.44;;;-13.88;39.29
42887;BME280;29032;56.028;92.904;2023-02-12T13:15:02;101947.59;;;-13.85;39.31
42887;BME280;29032;56.028;92.904;2023-02-12T13:20:12;101946.97;;;-13.82;39.63
42887;BME280;29032;56.028;92.904;2023-02-12T13:25:24;101951.94;;;-13.72;38.98
42887;BME280;29032;56.028;92.904;2023-02-12T13:30:35;101951.53;;;-13.83;39.14
42887;BME280;29032;56.028;92.904;2023-02-12T13:35:42;101947.00;;;-13.91;39.11
42887;BME280;29032;56.028;92.904;2023-02-12T13:40:45;101951.16;;;-13.72;39.18
42887;BME280;29032;56.028;92.904;2023-02-12T13:45:54;101928.56;;;-13.80;39.33
42887;BME280;29032;56.028;92.904;2023-02-12T13:51:06;101924.75;;;-13.79;38.60
42887;BME280;29032;56.028;92.904;2023-02-12T13:56:22;101923.00;;;-13.96;39.09
42887;BME280;29032;56.028;92.904;2023-02-12T14:01:41;101919.34;;;-14.21;39.11
42887;BME280;29032;56.028;92.904;2023-02-12T14:06:53;101925.31;;;-14.36;38.97
42887;BME280;29032;56.028;92.904;2023-02-12T14:11:56;101930.28;;;-14.55;39.40
42887;BME280;29032;56.028;92.904;2023-02-12T14:28:27;101922.59;;;-14.66;39.33
42887;BME280;29032;56.028;92.904;2023-02-12T14:33:30;101902.22;;;-14.67;39.18
42887;BME280;29032;56.028;92.904;2023-02-12T14:39:01;101893.94;;;-14.62;39.29
42887;BME280;29032;56.028;92.904;2023-02-12T14:49:44;101891.47;;;-14.67;39.18
42887;BME280;29032;56.028;92.904;2023-02-12T14:54:49;101895.91;;;-14.71;39.05
42887;BME280;29032;56.028;92.904;2023-02-12T14:59:55;101886.00;;;-14.49;39.14
42887;BME280;29032;56.028;92.904;2023-02-12T15:05:03;101892.31;;;-14.24;38.86
42887;BME280;29032;56.028;92.904;2023-02-12T15:10:12;101885.38;;;-14.05;38.51
42887;BME280;29032;56.028;92.904;2023-02-12T15:15:20;101881.19;;;-13.93;38.17
42887;BME280;29032;56.028;92.904;2023-02-12T15:20:32;101868.69;;;-13.98;38.03
42887;BME280;29032;56.028;92.904;2023-02-12T15:25:36;101876.25;;;-13.91;38.18
42887;BME280;29032;56.028;92.904;2023-02-12T15:30:41;101871.19;;;-13.93;37.68
42887;BME280;29032;56.028;92.904;2023-02-12T15:35:45;101872.31;;;-13.94;37.65
42887;BME280;29032;56.028;92.904;2023-02-12T15:40:54;101865.22;;;-13.98;37.38
42887;BME280;29032;56.028;92.904;2023-02-12T15:45:56;101855.84;;;-14.13;37.33
42887;BME280;29032;56.028;92.904;2023-02-12T15:51:08;101846.91;;;-14.26;37.96
42887;BME280;29032;56.028;92.904;2023-02-12T15:56:17;101840.63;;;-14.30;37.45
42887;BME280;29032;56.028;92.904;2023-02-12T16:01:21;101843.38;;;-14.39;38.00
42887;BME280;29032;56.028;92.904;2023-02-12T16:06:28;101845.50;;;-14.44;37.86
42887;BME280;29032;56.028;92.904;2023-02-12T16:11:32;101832.81;;;-14.65;38.02
42887;BME280;29032;56.028;92.904;2023-02-12T16:16:42;101837.72;;;-14.67;37.71
42887;BME280;29032;56.028;92.904;2023-02-12T16:21:48;101836.03;;;-14.80;37.89
42887;BME280;29032;56.028;92.904;2023-02-12T16:26:52;101824.34;;;-14.84;37.55
42887;BME280;29032;56.028;92.904;2023-02-12T16:31:57;101829.44;;;-14.91;37.56
42887;BME280;29032;56.028;92.904;2023-02-12T16:37:01;101822.19;;;-14.91;37.75
42887;BME280;29032;56.028;92.904;2023-02-12T16:42:13;101822.34;;;-14.87;37.67
42887;BME280;29032;56.028;92.904;2023-02-12T16:47:20;101821.84;;;-14.89;37.54
42887;BME280;29032;56.028;92.904;2023-02-12T16:52:34;101815.56;;;-14.93;37.88
42887;BME280;29032;56.028;92.904;2023-02-12T16:57:38;101816.50;;;-15.36;37.42
42887;BME280;29032;56.028;92.904;2023-02-12T17:02:40;101816.53;;;-15.53;38.18
42887;BME280;29032;56.028;92.904;2023-02-12T17:07:44;101807.69;;;-15.45;37.96
42887;BME280;29032;56.028;92.904;2023-02-12T17:12:47;101798.53;;;-15.44;37.76
42887;BME280;29032;56.028;92.904;2023-02-12T17:17:50;101803.09;;;-15.36;37.86
42887;BME280;29032;56.028;92.904;2023-02-12T17:22:54;101784.59;;;-15.29;37.82
42887;BME280;29032;56.028;92.904;2023-02-12T17:27:57;101782.53;;;-15.32;37.50
42887;BME280;29032;56.028;92.904;2023-02-12T17:32:59;101773.56;;;-15.36;37.41
42887;BME280;29032;56.028;92.904;2023-02-12T17:38:02;101774.19;;;-15.39;37.00
42887;BME280;29032;56.028;92.904;2023-02-12T17:43:05;101769.47;;;-15.42;37.50
42887;BME280;29032;56.028;92.904;2023-02-12T17:48:07;101767.13;;;-15.44;36.99
42887;BME280;29032;56.028;92.904;2023-02-12T17:53:11;101774.84;;;-15.42;37.57
42887;BME280;29032;56.028;92.904;2023-02-12T17:58:13;101764.56;;;-15.40;37.51
42887;BME280;29032;56.028;92.904;2023-02-12T18:03:15;101761.88;;;-15.40;37.42
42887;BME280;29032;56.028;92.904;2023-02-12T18:08:19;101754.78;;;-15.36;37.18
42887;BME280;29032;56.028;92.904;2023-02-12T18:13:21;101750.38;;;-15.41;36.97
42887;BME280;29032;56.028;92.904;2023-02-12T18:18:23;101746.81;;;-15.62;36.92
42887;BME280;29032;56.028;92.904;2023-02-12T18:23:26;101733.88;;;-15.69;37.05
42887;BME280;29032;56.028;92.904;2023-02-12T18:28:29;101729.16;;;-15.72;37.04
42887;BME280;29032;56.028;92.904;2023-02-12T18:33:31;101737.72;;;-15.87;36.85
42887;BME280;29032;56.028;92.904;2023-02-12T18:38:36;101733.78;;;-15.89;36.79
42887;BME280;29032;56.028;92.904;2023-02-12T18:50:09;101733.34;;;-16.00;36.70
42887;BME280;29032;56.028;92.904;2023-02-12T18:55:28;101725.34;;;-16.26;37.46
42887;BME280;29032;56.028;92.904;2023-02-12T19:00:34;101718.88;;;-16.60;37.07
42887;BME280;29032;56.028;92.904;2023-02-12T19:05:37;101714.78;;;-16.74;38.38
42887;BME280;29032;56.028;92.904;2023-02-12T19:10:41;101701.38;;;-16.92;38.35
42887;BME280;29032;56.028;92.904;2023-02-12T19:15:43;101703.25;;;-17.01;38.25
42887;BME280;29032;56.028;92.904;2023-02-12T19:20:47;101705.00;;;-16.88;38.58
42887;BME280;29032;56.028;92.904;2023-02-12T19:25:52;101682.31;;;-16.99;38.18
42887;BME280;29032;56.028;92.904;2023-02-12T19:30:54;101680.72;;;-17.00;38.20
42887;BME280;29032;56.028;92.904;2023-02-12T19:35:56;101679.19;;;-16.84;37.54
42887;BME280;29032;56.028;92.904;2023-02-12T19:41:04;101678.88;;;-16.91;38.37
42887;BME280;29032;56.028;92.904;2023-02-12T19:46:08;101680.41;;;-17.07;37.62
42887;BME280;29032;56.028;92.904;2023-02-12T19:51:12;101674.09;;;-17.11;38.33
42887;BME280;29032;56.028;92.904;2023-02-12T19:56:16;101675.69;;;-17.01;38.33
42887;BME280;29032;56.028;92.904;2023-02-12T20:01:19;101673.84;;;-16.84;37.57
42887;BME280;29032;56.028;92.904;2023-02-12T20:06:23;101663.91;;;-16.92;38.24
42887;BME280;29032;56.028;92.904;2023-02-12T20:11:32;101664.66;;;-17.00;37.72
42887;BME280;29032;56.028;92.904;2023-02-12T20:16:35;101658.84;;;-17.02;38.26
42887;BME280;29032;56.028;92.904;2023-02-12T20:21:37;101645.78;;;-17.12;37.97
42887;BME280;29032;56.028;92.904;2023-02-12T20:26:42;101637.09;;;-17.00;38.29
42887;BME280;29032;56.028;92.904;2023-02-12T20:31:44;101635.53;;;-17.10;37.61
42887;BME280;29032;56.028;92.904;2023-02-12T20:36:46;101625.91;;;-17.28;37.96
42887;BME280;29032;56.028;92.904;2023-02-12T20:41:50;101625.56;;;-17.36;38.57
42887;BME280;29032;56.028;92.904;2023-02-12T20:46:52;101607.75;;;-17.49;38.18
42887;BME280;29032;56.028;92.904;2023-02-12T20:51:54;101589.47;;;-17.64;38.62
42887;BME280;29032;56.028;92.904;2023-02-12T20:56:58;101585.38;;;-17.70;38.20
42887;BME280;29032;56.028;92.904;2023-02-12T21:02:00;101580.34;;;-17.63;38.11
42887;BME280;29032;56.028;92.904;2023-02-12T21:07:02;101576.44;;;-17.57;38.27
42887;BME280;29032;56.028;92.904;2023-02-12T21:12:06;101579.16;;;-17.48;38.46
42887;BME280;29032;56.028;92.904;2023-02-12T21:17:08;101582.44;;;-17.51;37.55
42887;BME280;29032;56.028;92.904;2023-02-12T21:22:10;101569.69;;;-17.54;38.44
42887;BME280;29032;56.028;92.904;2023-02-12T21:27:14;101570.47;;;-17.54;38.14
42887;BME280;29032;56.028;92.904;2023-02-12T21:32:16;101556.66;;;-17.47;38.74
42887;BME280;29032;56.028;92.904;2023-02-12T21:37:18;101549.41;;;-17.29;37.81
42887;BME280;29032;56.028;92.904;2023-02-12T21:42:22;101551.94;;;-17.24;37.80
42887;BME280;29032;56.028;92.904;2023-02-12T21:47:24;101555.41;;;-17.24;38.62
42887;BME280;29032;56.028;92.904;2023-02-12T21:52:26;101545.16;;;-17.22;37.65
42887;BME280;29032;56.028;92.904;2023-02-12T21:57:29;101529.09;;;-17.22;38.48
42887;BME280;29032;56.028;92.904;2023-02-12T22:02:31;101527.22;;;-17.21;38.07
42887;BME280;29032;56.028;92.904;2023-02-12T22:07:34;101518.88;;;-17.28;38.44
42887;BME280;29032;56.028;92.904;2023-02-12T22:12:37;101505.69;;;-17.33;38.02
42887;BME280;29032;56.028;92.904;2023-02-12T22:17:39;101515.41;;;-17.38;38.69
42887;BME280;29032;56.028;92.904;2023-02-12T22:22:41;101516.19;;;-17.37;37.53
42887;BME280;29032;56.028;92.904;2023-02-12T22:27:45;101511.97;;;-17.38;37.81
42887;BME280;29032;56.028;92.904;2023-02-12T22:32:47;101516.34;;;-17.42;38.36
42887;BME280;29032;56.028;92.904;2023-02-12T22:37:49;101520.59;;;-17.58;38.38
42887;BME280;29032;56.028;92.904;2023-02-12T22:42:53;101507.53;;;-17.60;38.48
42887;BME280;29032;56.028;92.904;2023-02-12T22:47:55;101500.63;;;-17.61;38.18
42887;BME280;29032;56.028;92.904;2023-02-12T22:52:57;101500.78;;;-17.40;38.31
42887;BME280;29032;56.028;92.904;2023-02-12T22:58:01;101488.38;;;-17.27;37.99
42887;BME280;29032;56.028;92.904;2023-02-12T23:03:03;101471.16;;;-17.09;37.36
42887;BME280;29032;56.028;92.904;2023-02-12T23:08:05;101458.44;;;-17.29;37.51
42887;BME280;29032;56.028;92.904;2023-02-12T23:13:09;101477.50;;;-17.31;37.90
42887;BME280;29032;56.028;92.904;2023-02-12T23:18:11;101467.75;;;-17.27;38.01
42887;BME280;29032;56.028;92.904;2023-02-12T23:23:14;101481.72;;;-17.04;38.17
42887;BME280;29032;56.028;92.904;2023-02-12T23:28:17;101470.13;;;-16.70;37.43
42887;BME280;29032;56.028;92.904;2023-02-12T23:33:19;101454.06;;;-16.78;37.58
42887;BME280;29032;56.028;92.904;2023-02-12T23:38:22;101443.09;;;-16.94;37.45
42887;BME280;29032;56.028;92.904;2023-02-12T23:43:25;101446.63;;;-17.11;37.74
42887;BME280;29032;56.028;92.904;2023-02-12T23:48:28;101446.59;;;-17.02;37.80
42887;BME280;29032;56.028;92.904;2023-02-12T23:53:30;101443.84;;;-16.76;36.93
42887;BME280;29032;56.028;92.904;2023-02-12T23:58:33;101437.09;;;-16.83;36.69
